sensor_id;sensor_type;location;lat;lon;timestamp;P1;durP1;ratioP1;P2;durP2;ratioP2
39886;SDS011;25559;44.738;20.980;2022-08-11T00:00:10;5.60;;;1.90;;
39886;SDS011;25559;44.738;20.980;2022-08-11T00:02:41;4.35;;;2.10;;
39886;SDS011;25559;44.738;20.980;2022-08-11T00:05:13;3.65;;;1.85;;
39886;SDS011;25559;44.738;20.980;2022-08-11T00:07:42;4.32;;;2.10;;
39886;SDS011;25559;44.738;20.980;2022-08-11T00:10:13;5.40;;;1.88;;
39886;SDS011;25559;44.738;20.980;2022-08-11T00:12:41;7.75;;;2.10;;
39886;SDS011;25559;44.738;20.980;2022-08-11T00:15:07;5.65;;;2.15;;
39886;SDS011;25559;44.738;20.980;2022-08-11T00:17:34;4.38;;;2.10;;
39886;SDS011;25559;44.738;20.980;2022-08-11T00:20:11;6.78;;;1.88;;
39886;SDS011;25559;44.738;20.980;2022-08-11T00:22:39;3.17;;;1.85;;
39886;SDS011;25559;44.738;20.980;2022-08-11T00:25:08;4.70;;;2.00;;
39886;SDS011;25559;44.738;20.980;2022-08-11T00:27:36;6.28;;;2.22;;
39886;SDS011;25559;44.738;20.980;2022-08-11T00:30:04;4.63;;;2.17;;
39886;SDS011;25559;44.738;20.980;2022-08-11T00:32:34;7.67;;;3.47;;
39886;SDS011;25559;44.738;20.980;2022-08-11T00:35:02;4.82;;;2.20;;
39886;SDS011;25559;44.738;20.980;2022-08-11T00:37:29;4.18;;;2.22;;
39886;SDS011;25559;44.738;20.980;2022-08-11T00:39:55;5.53;;;2.30;;
39886;SDS011;25559;44.738;20.980;2022-08-11T00:42:26;12.52;;;2.30;;
39886;SDS011;25559;44.738;20.980;2022-08-11T01:02:10;5.05;;;2.22;;
39886;SDS011;25559;44.738;20.980;2022-08-11T01:05:02;5.60;;;2.28;;
39886;SDS011;25559;44.738;20.980;2022-08-11T01:07:33;3.75;;;2.35;;
39886;SDS011;25559;44.738;20.980;2022-08-11T01:16:02;5.97;;;2.40;;
39886;SDS011;25559;44.738;20.980;2022-08-11T01:30:52;5.50;;;2.72;;
39886;SDS011;25559;44.738;20.980;2022-08-11T01:58:35;8.35;;;2.83;;
39886;SDS011;25559;44.738;20.980;2022-08-11T02:18:20;6.72;;;2.72;;
39886;SDS011;25559;44.738;20.980;2022-08-11T02:20:48;5.03;;;2.70;;
39886;SDS011;25559;44.738;20.980;2022-08-11T02:23:41;5.22;;;2.47;;
39886;SDS011;25559;44.738;20.980;2022-08-11T02:26:20;5.18;;;2.90;;
39886;SDS011;25559;44.738;20.980;2022-08-11T02:37:41;5.55;;;2.72;;
39886;SDS011;25559;44.738;20.980;2022-08-11T02:40:42;8.07;;;2.90;;
39886;SDS011;25559;44.738;20.980;2022-08-11T02:49:35;5.38;;;2.97;;
39886;SDS011;25559;44.738;20.980;2022-08-11T02:57:42;6.38;;;3.15;;
39886;SDS011;25559;44.738;20.980;2022-08-11T03:00:15;11.77;;;7.40;;
39886;SDS011;25559;44.738;20.980;2022-08-11T03:14:37;6.95;;;3.05;;
39886;SDS011;25559;44.738;20.980;2022-08-11T03:17:33;5.57;;;2.60;;
39886;SDS011;25559;44.738;20.980;2022-08-11T03:23:06;7.28;;;2.60;;
39886;SDS011;25559;44.738;20.980;2022-08-11T03:28:33;5.18;;;2.40;;
39886;SDS011;25559;44.738;20.980;2022-08-11T03:31:25;5.00;;;2.90;;
39886;SDS011;25559;44.738;20.980;2022-08-11T03:34:14;7.13;;;2.70;;
39886;SDS011;25559;44.738;20.980;2022-08-11T03:43:06;4.88;;;2.75;;
39886;SDS011;25559;44.738;20.980;2022-08-11T03:52:17;8.35;;;2.42;;
39886;SDS011;25559;44.738;20.980;2022-08-11T03:57:57;15.45;;;3.10;;
39886;SDS011;25559;44.738;20.980;2022-08-11T04:11:43;7.88;;;2.75;;
39886;SDS011;25559;44.738;20.980;2022-08-11T04:24:04;7.55;;;2.40;;
39886;SDS011;25559;44.738;20.980;2022-08-11T04:46:56;10.88;;;3.42;;
39886;SDS011;25559;44.738;20.980;2022-08-11T05:02:17;6.10;;;2.42;;
39886;SDS011;25559;44.738;20.980;2022-08-11T05:17:10;5.90;;;2.90;;
39886;SDS011;25559;44.738;20.980;2022-08-11T05:19:58;4.95;;;2.60;;
39886;SDS011;25559;44.738;20.980;2022-08-11T05:22:49;4.32;;;2.60;;
39886;SDS011;25559;44.738;20.980;2022-08-11T05:25:35;5.80;;;2.47;;
39886;SDS011;25559;44.738;20.980;2022-08-11T05:28:37;19.95;;;4.57;;
39886;SDS011;25559;44.738;20.980;2022-08-11T05:31:32;9.50;;;2.65;;
39886;SDS011;25559;44.738;20.980;2022-08-11T05:34:33;7.72;;;2.50;;
39886;SDS011;25559;44.738;20.980;2022-08-11T05:37:40;7.57;;;3.00;;
39886;SDS011;25559;44.738;20.980;2022-08-11T05:40:07;6.95;;;3.00;;
39886;SDS011;25559;44.738;20.980;2022-08-11T05:42:58;7.45;;;3.03;;
39886;SDS011;25559;44.738;20.980;2022-08-11T05:45:44;5.38;;;2.78;;
39886;SDS011;25559;44.738;20.980;2022-08-11T05:48:40;13.73;;;3.63;;
39886;SDS011;25559;44.738;20.980;2022-08-11T05:51:32;14.15;;;3.50;;
39886;SDS011;25559;44.738;20.980;2022-08-11T05:54:17;7.28;;;3.10;;
39886;SDS011;25559;44.738;20.980;2022-08-11T05:57:02;4.95;;;2.80;;
39886;SDS011;25559;44.738;20.980;2022-08-11T05:59:28;5.32;;;2.83;;
39886;SDS011;25559;44.738;20.980;2022-08-11T06:02:00;5.72;;;3.17;;
39886;SDS011;25559;44.738;20.980;2022-08-11T06:04:28;9.60;;;3.63;;
39886;SDS011;25559;44.738;20.980;2022-08-11T06:06:59;6.47;;;2.78;;
39886;SDS011;25559;44.738;20.980;2022-08-11T06:09:36;7.18;;;3.00;;
39886;SDS011;25559;44.738;20.980;2022-08-11T06:14:29;9.10;;;2.40;;
39886;SDS011;25559;44.738;20.980;2022-08-11T06:16:57;14.75;;;3.58;;
39886;SDS011;25559;44.738;20.980;2022-08-11T06:19:31;3.88;;;2.42;;
39886;SDS011;25559;44.738;20.980;2022-08-11T06:22:00;5.10;;;2.53;;
39886;SDS011;25559;44.738;20.980;2022-08-11T06:24:27;6.65;;;2.25;;
39886;SDS011;25559;44.738;20.980;2022-08-11T06:26:53;4.75;;;2.10;;
39886;SDS011;25559;44.738;20.980;2022-08-11T06:29:21;6.30;;;2.10;;
39886;SDS011;25559;44.738;20.980;2022-08-11T06:31:55;5.28;;;2.08;;
39886;SDS011;25559;44.738;20.980;2022-08-11T06:37:26;5.68;;;2.00;;
39886;SDS011;25559;44.738;20.980;2022-08-11T06:40:42;7.53;;;2.22;;
39886;SDS011;25559;44.738;20.980;2022-08-11T06:43:53;12.65;;;3.42;;
39886;SDS011;25559;44.738;20.980;2022-08-11T06:46:32;5.95;;;2.10;;
39886;SDS011;25559;44.738;20.980;2022-08-11T06:49:09;5.78;;;2.38;;
39886;SDS011;25559;44.738;20.980;2022-08-11T06:52:16;5.95;;;2.20;;
39886;SDS011;25559;44.738;20.980;2022-08-11T06:54:49;5.70;;;2.00;;
39886;SDS011;25559;44.738;20.980;2022-08-11T06:57:27;6.50;;;2.10;;
39886;SDS011;25559;44.738;20.980;2022-08-11T07:00:12;3.53;;;1.95;;
39886;SDS011;25559;44.738;20.980;2022-08-11T07:03:07;5.05;;;2.03;;
39886;SDS011;25559;44.738;20.980;2022-08-11T07:14:27;3.45;;;2.05;;
39886;SDS011;25559;44.738;20.980;2022-08-11T07:17:14;8.63;;;2.08;;
39886;SDS011;25559;44.738;20.980;2022-08-11T07:19:53;5.10;;;2.40;;
39886;SDS011;25559;44.738;20.980;2022-08-11T07:22:47;9.50;;;4.00;;
39886;SDS011;25559;44.738;20.980;2022-08-11T07:25:38;2.80;;;2.00;;
39886;SDS011;25559;44.738;20.980;2022-08-11T07:28:25;8.73;;;3.22;;
39886;SDS011;25559;44.738;20.980;2022-08-11T07:31:31;5.80;;;2.35;;
39886;SDS011;25559;44.738;20.980;2022-08-11T07:34:07;8.25;;;2.72;;
39886;SDS011;25559;44.738;20.980;2022-08-11T07:36:45;3.05;;;2.10;;
39886;SDS011;25559;44.738;20.980;2022-08-11T07:39:16;5.93;;;2.03;;
39886;SDS011;25559;44.738;20.980;2022-08-11T07:41:45;4.75;;;1.90;;
39886;SDS011;25559;44.738;20.980;2022-08-11T07:44:13;4.57;;;1.95;;
39886;SDS011;25559;44.738;20.980;2022-08-11T07:46:42;5.22;;;1.80;;
39886;SDS011;25559;44.738;20.980;2022-08-11T07:49:28;3.80;;;1.83;;
39886;SDS011;25559;44.738;20.980;2022-08-11T07:52:15;4.40;;;1.77;;
39886;SDS011;25559;44.738;20.980;2022-08-11T07:55:05;9.32;;;1.80;;
39886;SDS011;25559;44.738;20.980;2022-08-11T07:57:33;5.88;;;2.03;;
39886;SDS011;25559;44.738;20.980;2022-08-11T08:00:18;3.78;;;1.58;;
39886;SDS011;25559;44.738;20.980;2022-08-11T08:03:03;5.03;;;1.42;;
39886;SDS011;25559;44.738;20.980;2022-08-11T08:05:49;6.97;;;1.60;;
39886;SDS011;25559;44.738;20.980;2022-08-11T08:08:35;5.00;;;1.60;;
39886;SDS011;25559;44.738;20.980;2022-08-11T08:11:20;8.70;;;6.93;;
39886;SDS011;25559;44.738;20.980;2022-08-11T08:14:08;2.45;;;1.38;;
39886;SDS011;25559;44.738;20.980;2022-08-11T08:16:53;20.85;;;1.85;;
39886;SDS011;25559;44.738;20.980;2022-08-11T08:19:38;5.05;;;1.20;;
39886;SDS011;25559;44.738;20.980;2022-08-11T08:22:09;3.72;;;1.40;;
39886;SDS011;25559;44.738;20.980;2022-08-11T08:24:35;2.95;;;1.80;;
39886;SDS011;25559;44.738;20.980;2022-08-11T08:29:31;5.05;;;1.63;;
39886;SDS011;25559;44.738;20.980;2022-08-11T08:32:17;9.65;;;6.68;;
39886;SDS011;25559;44.738;20.980;2022-08-11T08:34:44;4.80;;;1.20;;
39886;SDS011;25559;44.738;20.980;2022-08-11T08:37:10;4.78;;;2.35;;
39886;SDS011;25559;44.738;20.980;2022-08-11T08:39:37;4.78;;;1.55;;
39886;SDS011;25559;44.738;20.980;2022-08-11T08:42:05;5.70;;;1.17;;
39886;SDS011;25559;44.738;20.980;2022-08-11T08:44:35;7.18;;;1.40;;
39886;SDS011;25559;44.738;20.980;2022-08-11T08:47:05;7.65;;;1.50;;
39886;SDS011;25559;44.738;20.980;2022-08-11T08:49:36;4.53;;;1.20;;
39886;SDS011;25559;44.738;20.980;2022-08-11T08:52:04;3.45;;;1.08;;
39886;SDS011;25559;44.738;20.980;2022-08-11T08:54:33;3.83;;;1.00;;
39886;SDS011;25559;44.738;20.980;2022-08-11T08:57:02;1.83;;;1.27;;
39886;SDS011;25559;44.738;20.980;2022-08-11T08:59:30;4.00;;;1.10;;
39886;SDS011;25559;44.738;20.980;2022-08-11T09:02:01;6.22;;;1.17;;
39886;SDS011;25559;44.738;20.980;2022-08-11T09:06:56;2.10;;;1.10;;
39886;SDS011;25559;44.738;20.980;2022-08-11T09:09:24;2.75;;;1.10;;
39886;SDS011;25559;44.738;20.980;2022-08-11T09:11:51;6.25;;;1.20;;
39886;SDS011;25559;44.738;20.980;2022-08-11T09:14:18;1.88;;;1.00;;
39886;SDS011;25559;44.738;20.980;2022-08-11T09:17:19;2.53;;;1.55;;
39886;SDS011;25559;44.738;20.980;2022-08-11T09:19:46;2.00;;;1.00;;
39886;SDS011;25559;44.738;20.980;2022-08-11T09:25:13;4.35;;;1.30;;
39886;SDS011;25559;44.738;20.980;2022-08-11T09:27:59;3.90;;;1.10;;
39886;SDS011;25559;44.738;20.980;2022-08-11T09:30:26;4.40;;;1.10;;
39886;SDS011;25559;44.738;20.980;2022-08-11T09:32:52;2.55;;;1.10;;
39886;SDS011;25559;44.738;20.980;2022-08-11T09:35:25;3.55;;;0.90;;
39886;SDS011;25559;44.738;20.980;2022-08-11T09:40:41;6.40;;;1.08;;
39886;SDS011;25559;44.738;20.980;2022-08-11T09:43:11;7.10;;;1.58;;
39886;SDS011;25559;44.738;20.980;2022-08-11T09:45:58;3.85;;;1.10;;
39886;SDS011;25559;44.738;20.980;2022-08-11T09:48:25;2.83;;;1.00;;
39886;SDS011;25559;44.738;20.980;2022-08-11T09:50:56;3.88;;;1.17;;
39886;SDS011;25559;44.738;20.980;2022-08-11T09:53:26;5.13;;;0.98;;
39886;SDS011;25559;44.738;20.980;2022-08-11T09:55:55;2.08;;;0.75;;
39886;SDS011;25559;44.738;20.980;2022-08-11T09:58:21;5.78;;;2.13;;
39886;SDS011;25559;44.738;20.980;2022-08-11T10:00:49;4.22;;;0.90;;
39886;SDS011;25559;44.738;20.980;2022-08-11T10:03:23;1.83;;;1.02;;
39886;SDS011;25559;44.738;20.980;2022-08-11T10:05:53;3.70;;;0.90;;
39886;SDS011;25559;44.738;20.980;2022-08-11T10:08:41;4.25;;;1.05;;
39886;SDS011;25559;44.738;20.980;2022-08-11T10:11:09;1.67;;;0.90;;
39886;SDS011;25559;44.738;20.980;2022-08-11T10:13:38;5.30;;;1.00;;
39886;SDS011;25559;44.738;20.980;2022-08-11T10:16:27;4.03;;;1.00;;
39886;SDS011;25559;44.738;20.980;2022-08-11T10:18:55;3.33;;;1.00;;
39886;SDS011;25559;44.738;20.980;2022-08-11T10:24:06;1.50;;;0.90;;
39886;SDS011;25559;44.738;20.980;2022-08-11T10:26:53;2.63;;;0.93;;
39886;SDS011;25559;44.738;20.980;2022-08-11T10:29:22;4.00;;;1.20;;
39886;SDS011;25559;44.738;20.980;2022-08-11T10:32:08;3.80;;;1.00;;
39886;SDS011;25559;44.738;20.980;2022-08-11T10:34:53;2.90;;;1.00;;
39886;SDS011;25559;44.738;20.980;2022-08-11T10:37:21;2.83;;;1.15;;
39886;SDS011;25559;44.738;20.980;2022-08-11T10:39:49;2.40;;;1.00;;
39886;SDS011;25559;44.738;20.980;2022-08-11T10:42:16;5.72;;;0.88;;
39886;SDS011;25559;44.738;20.980;2022-08-11T10:45:05;3.33;;;1.20;;
39886;SDS011;25559;44.738;20.980;2022-08-11T10:47:52;2.58;;;1.27;;
39886;SDS011;25559;44.738;20.980;2022-08-11T10:50:19;6.90;;;1.00;;
39886;SDS011;25559;44.738;20.980;2022-08-11T10:53:04;4.45;;;0.82;;
39886;SDS011;25559;44.738;20.980;2022-08-11T10:55:50;1.08;;;0.70;;
39886;SDS011;25559;44.738;20.980;2022-08-11T10:58:36;2.42;;;0.80;;
39886;SDS011;25559;44.738;20.980;2022-08-11T11:01:15;2.63;;;0.90;;
39886;SDS011;25559;44.738;20.980;2022-08-11T11:03:48;5.47;;;1.42;;
39886;SDS011;25559;44.738;20.980;2022-08-11T11:11:38;1.15;;;0.90;;
39886;SDS011;25559;44.738;20.980;2022-08-11T11:14:29;4.20;;;0.80;;
39886;SDS011;25559;44.738;20.980;2022-08-11T11:17:16;5.55;;;1.40;;
39886;SDS011;25559;44.738;20.980;2022-08-11T11:19:52;3.17;;;1.08;;
39886;SDS011;25559;44.738;20.980;2022-08-11T11:22:21;2.63;;;0.98;;
39886;SDS011;25559;44.738;20.980;2022-08-11T11:28:09;3.45;;;1.00;;
39886;SDS011;25559;44.738;20.980;2022-08-11T11:30:43;2.88;;;1.20;;
39886;SDS011;25559;44.738;20.980;2022-08-11T11:33:27;1.27;;;0.80;;
39886;SDS011;25559;44.738;20.980;2022-08-11T11:36:43;1.92;;;0.90;;
39886;SDS011;25559;44.738;20.980;2022-08-11T11:39:27;2.90;;;0.90;;
39886;SDS011;25559;44.738;20.980;2022-08-11T11:41:56;3.60;;;1.02;;
39886;SDS011;25559;44.738;20.980;2022-08-11T11:44:24;4.90;;;1.00;;
39886;SDS011;25559;44.738;20.980;2022-08-11T11:46:51;3.00;;;1.00;;
39886;SDS011;25559;44.738;20.980;2022-08-11T11:49:18;4.25;;;1.00;;
39886;SDS011;25559;44.738;20.980;2022-08-11T11:51:48;1.52;;;0.85;;
39886;SDS011;25559;44.738;20.980;2022-08-11T11:54:20;2.92;;;1.05;;
39886;SDS011;25559;44.738;20.980;2022-08-11T11:56:48;4.97;;;1.00;;
39886;SDS011;25559;44.738;20.980;2022-08-11T11:59:18;2.63;;;0.82;;
39886;SDS011;25559;44.738;20.980;2022-08-11T12:02:05;2.55;;;0.90;;
39886;SDS011;25559;44.738;20.980;2022-08-11T12:04:32;1.10;;;0.82;;
39886;SDS011;25559;44.738;20.980;2022-08-11T12:07:00;2.60;;;0.98;;
39886;SDS011;25559;44.738;20.980;2022-08-11T12:09:45;2.60;;;0.98;;
39886;SDS011;25559;44.738;20.980;2022-08-11T12:12:12;1.05;;;0.80;;
39886;SDS011;25559;44.738;20.980;2022-08-11T12:14:57;1.42;;;0.80;;
39886;SDS011;25559;44.738;20.980;2022-08-11T12:17:23;5.28;;;1.17;;
39886;SDS011;25559;44.738;20.980;2022-08-11T12:19:49;3.97;;;1.85;;
39886;SDS011;25559;44.738;20.980;2022-08-11T12:22:16;6.40;;;1.50;;
39886;SDS011;25559;44.738;20.980;2022-08-11T12:25:00;3.15;;;0.90;;
39886;SDS011;25559;44.738;20.980;2022-08-11T12:27:46;2.75;;;0.90;;
39886;SDS011;25559;44.738;20.980;2022-08-11T12:30:11;4.05;;;1.00;;
39886;SDS011;25559;44.738;20.980;2022-08-11T12:32:38;5.35;;;1.00;;
39886;SDS011;25559;44.738;20.980;2022-08-11T12:35:05;4.20;;;1.00;;
39886;SDS011;25559;44.738;20.980;2022-08-11T12:37:40;6.10;;;0.90;;
39886;SDS011;25559;44.738;20.980;2022-08-11T12:40:13;1.88;;;0.90;;
39886;SDS011;25559;44.738;20.980;2022-08-11T12:43:01;1.85;;;0.90;;
39886;SDS011;25559;44.738;20.980;2022-08-11T12:45:48;3.15;;;1.48;;
39886;SDS011;25559;44.738;20.980;2022-08-11T12:48:18;1.58;;;0.90;;
39886;SDS011;25559;44.738;20.980;2022-08-11T12:51:08;2.53;;;0.95;;
39886;SDS011;25559;44.738;20.980;2022-08-11T12:53:56;5.65;;;1.05;;
39886;SDS011;25559;44.738;20.980;2022-08-11T12:56:29;4.38;;;1.17;;
39886;SDS011;25559;44.738;20.980;2022-08-11T12:59:19;1.63;;;1.00;;
39886;SDS011;25559;44.738;20.980;2022-08-11T13:02:05;4.78;;;1.35;;
39886;SDS011;25559;44.738;20.980;2022-08-11T13:04:52;5.97;;;1.08;;
39886;SDS011;25559;44.738;20.980;2022-08-11T13:07:20;2.05;;;1.00;;
39886;SDS011;25559;44.738;20.980;2022-08-11T13:09:47;1.65;;;0.95;;
39886;SDS011;25559;44.738;20.980;2022-08-11T13:12:14;1.13;;;0.90;;
39886;SDS011;25559;44.738;20.980;2022-08-11T13:14:59;3.17;;;1.15;;
39886;SDS011;25559;44.738;20.980;2022-08-11T13:17:26;2.25;;;1.08;;
39886;SDS011;25559;44.738;20.980;2022-08-11T13:19:54;2.35;;;0.93;;
39886;SDS011;25559;44.738;20.980;2022-08-11T13:22:23;1.70;;;1.00;;
39886;SDS011;25559;44.738;20.980;2022-08-11T13:24:51;2.05;;;0.80;;
39886;SDS011;25559;44.738;20.980;2022-08-11T13:27:19;2.65;;;0.98;;
39886;SDS011;25559;44.738;20.980;2022-08-11T13:29:46;3.30;;;1.20;;
39886;SDS011;25559;44.738;20.980;2022-08-11T13:32:14;4.63;;;1.33;;
39886;SDS011;25559;44.738;20.980;2022-08-11T13:34:41;4.70;;;1.38;;
39886;SDS011;25559;44.738;20.980;2022-08-11T13:37:09;2.22;;;1.33;;
39886;SDS011;25559;44.738;20.980;2022-08-11T13:39:37;6.93;;;1.30;;
39886;SDS011;25559;44.738;20.980;2022-08-11T13:42:12;4.70;;;1.10;;
39886;SDS011;25559;44.738;20.980;2022-08-11T13:44:40;1.95;;;0.70;;
39886;SDS011;25559;44.738;20.980;2022-08-11T13:47:07;9.68;;;1.40;;
39886;SDS011;25559;44.738;20.980;2022-08-11T13:49:37;10.73;;;1.55;;
39886;SDS011;25559;44.738;20.980;2022-08-11T13:52:04;6.40;;;1.50;;
39886;SDS011;25559;44.738;20.980;2022-08-11T13:54:34;8.10;;;1.55;;
39886;SDS011;25559;44.738;20.980;2022-08-11T13:57:06;4.15;;;1.05;;
39886;SDS011;25559;44.738;20.980;2022-08-11T13:59:32;7.40;;;1.65;;
39886;SDS011;25559;44.738;20.980;2022-08-11T14:02:00;3.17;;;1.15;;
39886;SDS011;25559;44.738;20.980;2022-08-11T14:04:31;2.65;;;1.02;;
39886;SDS011;25559;44.738;20.980;2022-08-11T14:07:08;1.65;;;1.02;;
39886;SDS011;25559;44.738;20.980;2022-08-11T14:09:36;3.03;;;1.05;;
39886;SDS011;25559;44.738;20.980;2022-08-11T14:12:22;1.45;;;0.90;;
39886;SDS011;25559;44.738;20.980;2022-08-11T14:15:27;3.28;;;0.93;;
39886;SDS011;25559;44.738;20.980;2022-08-11T14:20:30;2.63;;;1.30;;
39886;SDS011;25559;44.738;20.980;2022-08-11T14:23:17;2.25;;;1.10;;
39886;SDS011;25559;44.738;20.980;2022-08-11T14:25:48;5.43;;;1.80;;
39886;SDS011;25559;44.738;20.980;2022-08-11T14:28:33;2.70;;;1.30;;
39886;SDS011;25559;44.738;20.980;2022-08-11T14:31:00;5.00;;;1.10;;
39886;SDS011;25559;44.738;20.980;2022-08-11T14:33:32;3.03;;;0.93;;
39886;SDS011;25559;44.738;20.980;2022-08-11T14:36:00;3.42;;;1.27;;
39886;SDS011;25559;44.738;20.980;2022-08-11T14:38:27;6.47;;;2.33;;
39886;SDS011;25559;44.738;20.980;2022-08-11T14:40:53;2.30;;;1.00;;
39886;SDS011;25559;44.738;20.980;2022-08-11T14:43:38;2.67;;;1.20;;
39886;SDS011;25559;44.738;20.980;2022-08-11T14:46:23;4.15;;;1.20;;
39886;SDS011;25559;44.738;20.980;2022-08-11T14:49:07;3.03;;;1.27;;
39886;SDS011;25559;44.738;20.980;2022-08-11T14:51:35;24.30;;;2.08;;
39886;SDS011;25559;44.738;20.980;2022-08-11T14:54:01;4.95;;;1.30;;
39886;SDS011;25559;44.738;20.980;2022-08-11T14:56:45;3.05;;;0.70;;
39886;SDS011;25559;44.738;20.980;2022-08-11T14:59:11;3.75;;;1.40;;
39886;SDS011;25559;44.738;20.980;2022-08-11T15:01:38;3.17;;;0.90;;
39886;SDS011;25559;44.738;20.980;2022-08-11T15:04:23;4.53;;;1.02;;
39886;SDS011;25559;44.738;20.980;2022-08-11T15:06:49;2.70;;;1.10;;
39886;SDS011;25559;44.738;20.980;2022-08-11T15:09:15;6.78;;;1.13;;
39886;SDS011;25559;44.738;20.980;2022-08-11T15:11:42;2.95;;;0.93;;
39886;SDS011;25559;44.738;20.980;2022-08-11T15:14:26;2.45;;;1.10;;
39886;SDS011;25559;44.738;20.980;2022-08-11T15:17:11;4.00;;;1.17;;
39886;SDS011;25559;44.738;20.980;2022-08-11T15:19:39;4.53;;;1.00;;
39886;SDS011;25559;44.738;20.980;2022-08-11T15:22:26;3.50;;;1.20;;
39886;SDS011;25559;44.738;20.980;2022-08-11T15:25:10;3.25;;;0.95;;
39886;SDS011;25559;44.738;20.980;2022-08-11T15:27:36;7.00;;;1.23;;
39886;SDS011;25559;44.738;20.980;2022-08-11T15:30:22;5.85;;;1.20;;
39886;SDS011;25559;44.738;20.980;2022-08-11T15:33:08;3.28;;;1.00;;
39886;SDS011;25559;44.738;20.980;2022-08-11T15:35:54;2.25;;;1.10;;
39886;SDS011;25559;44.738;20.980;2022-08-11T15:38:46;4.43;;;1.27;;
39886;SDS011;25559;44.738;20.980;2022-08-11T15:41:16;5.20;;;1.00;;
39886;SDS011;25559;44.738;20.980;2022-08-11T15:44:01;3.92;;;1.30;;
39886;SDS011;25559;44.738;20.980;2022-08-11T15:46:51;2.55;;;1.17;;
39886;SDS011;25559;44.738;20.980;2022-08-11T15:49:23;4.57;;;1.27;;
39886;SDS011;25559;44.738;20.980;2022-08-11T15:52:01;3.63;;;1.13;;
39886;SDS011;25559;44.738;20.980;2022-08-11T15:54:37;3.20;;;1.15;;
39886;SDS011;25559;44.738;20.980;2022-08-11T15:57:06;3.03;;;1.00;;
39886;SDS011;25559;44.738;20.980;2022-08-11T15:59:35;3.63;;;1.00;;
39886;SDS011;25559;44.738;20.980;2022-08-11T16:02:21;4.20;;;1.20;;
39886;SDS011;25559;44.738;20.980;2022-08-11T16:05:09;3.25;;;1.27;;
39886;SDS011;25559;44.738;20.980;2022-08-11T16:10:06;3.17;;;1.45;;
39886;SDS011;25559;44.738;20.980;2022-08-11T16:12:36;12.80;;;1.73;;
39886;SDS011;25559;44.738;20.980;2022-08-11T16:15:07;3.60;;;1.40;;
39886;SDS011;25559;44.738;20.980;2022-08-11T16:18:00;6.72;;;1.70;;
39886;SDS011;25559;44.738;20.980;2022-08-11T16:20:29;5.57;;;1.70;;
39886;SDS011;25559;44.738;20.980;2022-08-11T16:22:58;3.17;;;1.40;;
39886;SDS011;25559;44.738;20.980;2022-08-11T16:25:28;6.35;;;1.63;;
39886;SDS011;25559;44.738;20.980;2022-08-11T16:28:03;4.50;;;1.40;;
39886;SDS011;25559;44.738;20.980;2022-08-11T16:30:31;5.07;;;2.55;;
39886;SDS011;25559;44.738;20.980;2022-08-11T16:32:59;4.45;;;1.15;;
39886;SDS011;25559;44.738;20.980;2022-08-11T16:35:28;3.65;;;1.15;;
39886;SDS011;25559;44.738;20.980;2022-08-11T16:38:19;1.30;;;1.08;;
39886;SDS011;25559;44.738;20.980;2022-08-11T16:41:01;4.13;;;1.10;;
39886;SDS011;25559;44.738;20.980;2022-08-11T16:43:31;1.67;;;1.00;;
39886;SDS011;25559;44.738;20.980;2022-08-11T16:46:18;4.32;;;1.17;;
39886;SDS011;25559;44.738;20.980;2022-08-11T16:49:08;7.03;;;1.00;;
39886;SDS011;25559;44.738;20.980;2022-08-11T16:51:36;2.83;;;0.90;;
39886;SDS011;25559;44.738;20.980;2022-08-11T16:54:02;3.03;;;1.48;;
39886;SDS011;25559;44.738;20.980;2022-08-11T16:56:31;3.03;;;1.40;;
39886;SDS011;25559;44.738;20.980;2022-08-11T16:59:05;3.20;;;1.10;;
39886;SDS011;25559;44.738;20.980;2022-08-11T17:01:43;3.17;;;1.30;;
39886;SDS011;25559;44.738;20.980;2022-08-11T17:07:16;3.85;;;1.23;;
39886;SDS011;25559;44.738;20.980;2022-08-11T17:10:04;5.43;;;1.38;;
39886;SDS011;25559;44.738;20.980;2022-08-11T17:12:50;7.03;;;1.30;;
39886;SDS011;25559;44.738;20.980;2022-08-11T17:15:36;4.35;;;1.60;;
39886;SDS011;25559;44.738;20.980;2022-08-11T17:18:24;4.32;;;1.48;;
39886;SDS011;25559;44.738;20.980;2022-08-11T17:21:05;6.35;;;1.23;;
39886;SDS011;25559;44.738;20.980;2022-08-11T17:23:32;6.00;;;1.42;;
39886;SDS011;25559;44.738;20.980;2022-08-11T17:34:45;7.68;;;1.45;;
39886;SDS011;25559;44.738;20.980;2022-08-11T17:37:31;12.48;;;2.47;;
39886;SDS011;25559;44.738;20.980;2022-08-11T17:39:58;7.53;;;1.70;;
39886;SDS011;25559;44.738;20.980;2022-08-11T17:42:27;4.88;;;1.38;;
39886;SDS011;25559;44.738;20.980;2022-08-11T17:45:14;8.93;;;1.75;;
39886;SDS011;25559;44.738;20.980;2022-08-11T17:48:01;6.35;;;1.70;;
39886;SDS011;25559;44.738;20.980;2022-08-11T17:50:47;7.22;;;1.50;;
39886;SDS011;25559;44.738;20.980;2022-08-11T17:53:14;7.72;;;1.60;;
39886;SDS011;25559;44.738;20.980;2022-08-11T17:56:00;5.15;;;1.50;;
39886;SDS011;25559;44.738;20.980;2022-08-11T17:58:45;6.95;;;1.83;;
39886;SDS011;25559;44.738;20.980;2022-08-11T18:01:34;8.35;;;2.20;;
39886;SDS011;25559;44.738;20.980;2022-08-11T18:04:02;6.97;;;1.50;;
39886;SDS011;25559;44.738;20.980;2022-08-11T18:06:30;6.15;;;1.48;;
39886;SDS011;25559;44.738;20.980;2022-08-11T18:08:57;13.68;;;2.55;;
39886;SDS011;25559;44.738;20.980;2022-08-11T18:11:43;6.88;;;1.90;;
39886;SDS011;25559;44.738;20.980;2022-08-11T18:14:30;10.02;;;1.85;;
39886;SDS011;25559;44.738;20.980;2022-08-11T18:17:15;7.00;;;1.40;;
39886;SDS011;25559;44.738;20.980;2022-08-11T18:20:00;7.47;;;1.90;;
39886;SDS011;25559;44.738;20.980;2022-08-11T18:22:44;8.02;;;1.80;;
39886;SDS011;25559;44.738;20.980;2022-08-11T18:25:34;7.65;;;1.83;;
39886;SDS011;25559;44.738;20.980;2022-08-11T18:28:24;6.55;;;1.85;;
39886;SDS011;25559;44.738;20.980;2022-08-11T18:31:13;12.13;;;2.00;;
39886;SDS011;25559;44.738;20.980;2022-08-11T18:34:00;8.27;;;2.47;;
39886;SDS011;25559;44.738;20.980;2022-08-11T18:36:49;12.32;;;2.92;;
39886;SDS011;25559;44.738;20.980;2022-08-11T18:39:44;5.03;;;2.55;;
39886;SDS011;25559;44.738;20.980;2022-08-11T18:42:32;9.70;;;3.08;;
39886;SDS011;25559;44.738;20.980;2022-08-11T18:45:18;8.38;;;3.50;;
39886;SDS011;25559;44.738;20.980;2022-08-11T18:48:04;9.88;;;3.83;;
39886;SDS011;25559;44.738;20.980;2022-08-11T18:50:54;13.68;;;4.03;;
39886;SDS011;25559;44.738;20.980;2022-08-11T18:53:41;10.90;;;4.05;;
39886;SDS011;25559;44.738;20.980;2022-08-11T18:56:29;10.50;;;3.42;;
39886;SDS011;25559;44.738;20.980;2022-08-11T18:59:15;16.95;;;4.80;;
39886;SDS011;25559;44.738;20.980;2022-08-11T19:02:03;15.10;;;5.45;;
39886;SDS011;25559;44.738;20.980;2022-08-11T19:04:49;15.75;;;4.47;;
39886;SDS011;25559;44.738;20.980;2022-08-11T19:07:34;10.65;;;3.50;;
39886;SDS011;25559;44.738;20.980;2022-08-11T19:10:21;13.13;;;3.47;;
39886;SDS011;25559;44.738;20.980;2022-08-11T19:13:06;15.98;;;4.68;;
39886;SDS011;25559;44.738;20.980;2022-08-11T19:15:53;12.25;;;4.88;;
39886;SDS011;25559;44.738;20.980;2022-08-11T19:18:38;11.02;;;4.43;;
39886;SDS011;25559;44.738;20.980;2022-08-11T19:21:25;13.07;;;5.28;;
39886;SDS011;25559;44.738;20.980;2022-08-11T19:24:12;16.45;;;5.75;;
39886;SDS011;25559;44.738;20.980;2022-08-11T19:26:58;14.85;;;6.25;;
39886;SDS011;25559;44.738;20.980;2022-08-11T19:29:43;10.82;;;4.35;;
39886;SDS011;25559;44.738;20.980;2022-08-11T19:32:28;8.75;;;2.95;;
39886;SDS011;25559;44.738;20.980;2022-08-11T19:35:14;8.50;;;2.85;;
39886;SDS011;25559;44.738;20.980;2022-08-11T19:38:00;6.18;;;2.90;;
39886;SDS011;25559;44.738;20.980;2022-08-11T19:40:45;6.45;;;2.60;;
39886;SDS011;25559;44.738;20.980;2022-08-11T19:43:32;13.98;;;2.90;;